Time;durP1;ratioP1;P1;durP2;ratioP2;P2;SDS_P1;SDS_P2;PMS_P1;PMS_P2;Temp;Humidity;BMP_temperature;BMP_pressure;BME280_temperature;BME280_humidity;BME280_pressure;Samples;Min_cycle;Max_cycle;Signal;HPM_P1;HPM_P2
2022/07/12 00:02:05;;;;;;;1.00;0.70;;;20.20;1.00;;;;;;5138445;27;20439;-74
2022/07/12 00:04:32;;;;;;;1.00;0.70;;;20.10;1.00;;;;;;5138098;27;20451;-74
2022/07/12 00:07:00;;;;;;;0.80;0.67;;;20.10;1.00;;;;;;5138195;27;20440;-75
2022/07/12 00:09:27;;;;;;;1.00;0.70;;;20.10;1.00;;;;;;5137306;27;20471;-74
2022/07/12 00:11:55;;;;;;;0.80;0.67;;;20.10;1.00;;;;;;5138040;27;20479;-74
2022/07/12 00:14:22;;;;;;;1.03;0.70;;;20.10;1.00;;;;;;5137747;27;20444;-74
2022/07/12 00:16:51;;;;;;;2.20;0.90;;;20.00;1.00;;;;;;5137814;27;20458;-74
2022/07/12 00:19:18;;;;;;;1.33;0.70;;;19.80;1.00;;;;;;5137449;27;20454;-74
2022/07/12 00:21:45;;;;;;;0.87;0.63;;;19.70;99.90;;;;;;5137034;27;20444;-74
2022/07/12 00:24:13;;;;;;;0.90;0.70;;;19.70;99.90;;;;;;5137374;27;20544;-74
2022/07/12 00:26:40;;;;;;;1.13;0.67;;;19.70;99.90;;;;;;5137772;27;20512;-74
2022/07/12 00:29:07;;;;;;;1.20;0.70;;;19.80;99.90;;;;;;5137463;27;20528;-74
2022/07/12 00:31:34;;;;;;;1.00;0.60;;;19.70;99.90;;;;;;5137404;27;20444;-74
2022/07/12 00:34:01;;;;;;;0.90;0.70;;;19.60;99.90;;;;;;5136271;27;20440;-74
2022/07/12 00:36:28;;;;;;;2.80;0.70;;;19.50;1.00;;;;;;5136233;27;20743;-75
2022/07/12 00:38:56;;;;;;;1.00;0.70;;;19.40;1.00;;;;;;5136210;27;20492;-74
2022/07/12 00:41:24;;;;;;;0.83;0.60;;;19.60;1.00;;;;;;5136589;27;20456;-74
2022/07/12 00:43:52;;;;;;;0.90;0.63;;;19.80;99.90;;;;;;5136570;27;20863;-74
2022/07/12 00:46:23;;;;;;;0.80;0.70;;;20.00;1.00;;;;;;5136763;27;20535;-74
2022/07/12 00:48:51;;;;;;;0.80;0.70;;;19.80;1.00;;;;;;5137363;27;20440;-74
2022/07/12 00:51:19;;;;;;;1.00;0.60;;;19.90;1.00;;;;;;5138021;27;20490;-74
2022/07/12 00:53:47;;;;;;;1.33;0.70;;;19.80;1.00;;;;;;5138021;27;20496;-74
2022/07/12 00:56:14;;;;;;;0.97;0.73;;;19.70;19.20;;;;;;5137653;27;20451;-74
2022/07/12 00:58:43;;;;;;;1.00;0.60;;;19.80;1.00;;;;;;5137801;27;20444;-74
2022/07/12 01:01:11;;;;;;;0.80;0.60;;;19.70;40.00;;;;;;5138011;27;20734;-74
2022/07/12 01:03:39;;;;;;;1.10;0.63;;;19.80;1.00;;;;;;5137333;27;20440;-74
2022/07/12 01:06:08;;;;;;;0.83;0.60;;;19.70;1.00;;;;;;5137897;27;20459;-74
2022/07/12 01:08:35;;;;;;;0.73;0.60;;;19.80;1.00;;;;;;5137634;27;20451;-74
2022/07/12 01:11:02;;;;;;;0.80;0.50;;;19.80;1.00;;;;;;5137075;27;20454;-74
2022/07/12 01:13:30;;;;;;;0.90;0.60;;;19.80;1.00;;;;;;5137078;27;20479;-74
2022/07/12 01:15:59;;;;;;;0.80;0.60;;;19.70;1.00;;;;;;5137445;27;20551;-74
2022/07/12 01:18:27;;;;;;;0.70;0.60;;;19.70;76.50;;;;;;5137613;27;20448;-74
2022/07/12 01:20:55;;;;;;;0.93;0.70;;;19.60;15.20;;;;;;5137284;27;20451;-74
2022/07/12 01:23:24;;;;;;;0.67;0.50;;;19.60;99.90;;;;;;5137324;27;20915;-74
2022/07/12 01:25:51;;;;;;;0.70;0.60;;;19.60;99.90;;;;;;5137196;27;20812;-74
2022/07/12 01:28:18;;;;;;;1.03;0.70;;;19.60;99.90;;;;;;5137199;27;20564;-74
2022/07/12 01:30:45;;;;;;;0.80;0.70;;;19.60;99.90;;;;;;5137023;27;20452;-74
2022/07/12 01:33:12;;;;;;;0.90;0.70;;;19.50;99.90;;;;;;5137183;27;20536;-74
2022/07/12 01:35:40;;;;;;;0.93;0.70;;;19.30;99.90;;;;;;5137261;27;20463;-74
2022/07/12 01:38:07;;;;;;;1.57;0.70;;;19.10;1.00;;;;;;5137230;27;20459;-74
2022/07/12 01:40:35;;;;;;;1.23;0.73;;;19.00;99.90;;;;;;5137078;27;20545;-73
2022/07/12 01:43:02;;;;;;;0.60;0.60;;;18.90;1.00;;;;;;5136987;27;20440;-74
2022/07/12 01:45:29;;;;;;;0.90;0.60;;;18.90;1.00;;;;;;5140700;27;20455;-74
2022/07/12 01:47:58;;;;;;;0.80;0.60;;;18.80;69.10;;;;;;5141196;27;20471;-74
2022/07/12 01:50:26;;;;;;;1.07;0.83;;;18.60;1.00;;;;;;5141348;27;20519;-74
2022/07/12 01:52:53;;;;;;;0.70;0.60;;;18.60;96.80;;;;;;5141000;27;20479;-74
2022/07/12 01:55:20;;;;;;;0.90;0.70;;;18.60;99.90;;;;;;5141158;27;20475;-74
2022/07/12 01:57:49;;;;;;;1.90;0.70;;;18.40;1.00;;;;;;5141035;27;20443;-74
2022/07/12 02:00:16;;;;;;;0.90;0.70;;;18.30;1.00;;;;;;5141127;27;20504;-74
2022/07/12 02:02:47;;;;;;;1.00;0.70;;;18.20;1.00;;;;;;5141055;27;20482;-74
2022/07/12 02:05:14;;;;;;;0.87;0.60;;;18.20;1.00;;;;;;5140774;27;20899;-74
2022/07/12 02:07:41;;;;;;;1.40;0.60;;;18.20;1.00;;;;;;5141246;27;20460;-74
2022/07/12 02:10:09;;;;;;;0.90;0.63;;;18.20;1.00;;;;;;5140475;27;20898;-74
2022/07/12 02:12:37;;;;;;;1.20;0.70;;;18.20;1.00;;;;;;5140546;27;20945;-74
2022/07/12 02:15:07;;;;;;;1.23;0.70;;;18.40;99.90;;;;;;5140641;27;20455;-74
2022/07/12 02:17:34;;;;;;;0.93;0.60;;;18.40;99.90;;;;;;5140433;27;21033;-73
2022/07/12 02:20:01;;;;;;;0.80;0.60;;;18.50;1.00;;;;;;5140731;27;20471;-73
2022/07/12 02:22:28;;;;;;;0.80;0.57;;;18.40;1.00;;;;;;5140803;27;20447;-74
2022/07/12 02:24:56;;;;;;;0.87;0.67;;;18.40;99.90;;;;;;5140942;27;20520;-74
2022/07/12 02:27:23;;;;;;;0.80;0.50;;;18.50;1.00;;;;;;5140840;27;20479;-74
2022/07/12 02:29:50;;;;;;;0.90;0.60;;;18.60;99.90;;;;;;5141061;27;21084;-74
2022/07/12 02:32:18;;;;;;;0.90;0.60;;;18.50;99.90;;;;;;5140940;27;20524;-74
2022/07/12 02:34:45;;;;;;;0.87;0.60;;;18.40;1.00;;;;;;5141418;27;20459;-74
2022/07/12 02:37:13;;;;;;;0.97;0.60;;;18.30;99.90;;;;;;5141836;27;20448;-74
2022/07/12 02:39:40;;;;;;;1.03;0.60;;;18.20;99.90;;;;;;5142435;27;20754;-75
2022/07/12 02:42:07;;;;;;;0.97;0.63;;;18.20;1.00;;;;;;5141919;27;20444;-75
2022/07/12 02:44:34;;;;;;;1.10;0.50;;;18.10;1.00;;;;;;5141165;27;20947;-74
2022/07/12 02:47:01;;;;;;;0.70;0.60;;;18.00;5.90;;;;;;5141111;27;20793;-74
2022/07/12 02:49:29;;;;;;;1.00;0.60;;;18.00;99.90;;;;;;5140813;27;20456;-74
2022/07/12 02:51:56;;;;;;;0.80;0.60;;;18.10;97.60;;;;;;5140331;27;20875;-74
2022/07/12 02:54:23;;;;;;;1.07;0.60;;;18.30;99.90;;;;;;5139075;27;20532;-74
2022/07/12 02:56:50;;;;;;;1.00;0.60;;;18.20;99.90;;;;;;5138257;27;20439;-74
2022/07/12 02:59:17;;;;;;;0.90;0.57;;;18.20;99.90;;;;;;5139557;27;20814;-74
2022/07/12 03:01:44;;;;;;;1.83;0.60;;;18.20;1.00;;;;;;5139370;27;20502;-74
2022/07/12 03:04:11;;;;;;;1.20;0.50;;;18.10;1.00;;;;;;5139374;27;20435;-74
2022/07/12 03:06:40;;;;;;;1.03;0.60;;;18.10;1.00;;;;;;5139114;27;20501;-74
2022/07/12 03:09:07;;;;;;;0.77;0.50;;;18.20;1.00;;;;;;5138749;27;20501;-74
2022/07/12 03:11:34;;;;;;;0.93;0.60;;;18.30;99.90;;;;;;5136714;27;20451;-74
2022/07/12 03:14:00;;;;;;;2.00;0.50;;;18.20;77.30;;;;;;5136176;27;20511;-74
2022/07/12 03:16:27;;;;;;;0.70;0.60;;;18.10;99.20;;;;;;5136321;27;20456;-74
2022/07/12 03:18:54;;;;;;;0.70;0.50;;;17.90;1.00;;;;;;5136574;27;20486;-74
2022/07/12 03:21:21;;;;;;;1.23;0.50;;;17.90;59.90;;;;;;5134683;27;20472;-74
2022/07/12 03:23:50;;;;;;;0.70;0.50;;;17.90;24.00;;;;;;5137121;27;20548;-74
2022/07/12 03:26:17;;;;;;;0.70;0.60;;;17.80;18.10;;;;;;5138106;27;20939;-74
2022/07/12 03:28:44;;;;;;;0.80;0.60;;;17.70;99.90;;;;;;5136862;27;20476;-74
2022/07/12 03:31:11;;;;;;;0.70;0.60;;;17.70;99.90;;;;;;5137752;27;20487;-74
2022/07/12 03:33:38;;;;;;;1.00;0.60;;;17.70;99.90;;;;;;5137921;27;20480;-74
2022/07/12 03:36:08;;;;;;;0.80;0.50;;;17.60;99.90;;;;;;5138234;27;20458;-72
2022/07/12 03:38:36;;;;;;;0.70;0.50;;;17.70;99.90;;;;;;5131518;27;20822;-73
2022/07/12 03:41:05;;;;;;;0.80;0.50;;;17.80;99.90;;;;;;5135250;27;20462;-74
2022/07/12 03:43:32;;;;;;;1.10;0.50;;;17.80;9.90;;;;;;5129834;27;20496;-74
2022/07/12 03:45:59;;;;;;;0.70;0.50;;;18.00;28.00;;;;;;5139025;27;20455;-74
2022/07/12 03:48:26;;;;;;;0.90;0.60;;;18.20;99.90;;;;;;5130230;27;20517;-74
2022/07/12 03:50:53;;;;;;;0.70;0.50;;;18.20;13.90;;;;;;5118135;28;20884;-74
2022/07/12 03:53:20;;;;;;;0.80;0.50;;;18.20;1.00;;;;;;5118180;28;20587;-74
2022/07/12 03:55:47;;;;;;;0.73;0.50;;;18.20;1.00;;;;;;5118258;28;20463;-74
2022/07/12 03:58:15;;;;;;;0.70;0.50;;;18.10;1.00;;;;;;5118269;28;20868;-74
2022/07/12 04:00:43;;;;;;;0.57;0.50;;;18.00;1.00;;;;;;5118061;28;20456;-74
2022/07/12 04:03:11;;;;;;;0.80;0.50;;;17.80;1.00;;;;;;5118263;28;20444;-74
2022/07/12 04:05:38;;;;;;;0.60;0.50;;;17.80;1.00;;;;;;5117070;28;20452;-74
2022/07/12 04:08:06;;;;;;;0.63;0.50;;;17.70;32.40;;;;;;5117753;28;20503;-74
2022/07/12 04:10:33;;;;;;;1.00;0.50;;;17.80;99.90;;;;;;5116783;28;20464;-74
2022/07/12 04:13:00;;;;;;;1.13;0.50;;;17.80;1.00;;;;;;5117743;28;20445;-74
2022/07/12 04:15:28;;;;;;;0.80;0.60;;;17.80;1.00;;;;;;5117858;28;20510;-74
2022/07/12 04:17:55;;;;;;;0.87;0.60;;;17.80;1.00;;;;;;5118059;28;20505;-73
2022/07/12 04:20:22;;;;;;;1.20;0.67;;;18.00;1.00;;;;;;5117209;28;20452;-75
2022/07/12 04:22:49;;;;;;;0.70;0.50;;;18.20;99.90;;;;;;5117690;28;20513;-74
2022/07/12 04:25:16;;;;;;;1.20;0.50;;;18.20;1.00;;;;;;5117640;28;20456;-75
2022/07/12 04:27:43;;;;;;;1.17;0.50;;;18.20;1.00;;;;;;5117585;28;20445;-74
2022/07/12 04:30:10;;;;;;;0.80;0.50;;;18.10;99.90;;;;;;5117499;28;20543;-74
2022/07/12 04:32:39;;;;;;;0.80;0.50;;;18.10;99.90;;;;;;5117738;28;20505;-74
2022/07/12 04:35:07;;;;;;;0.77;0.50;;;18.00;1.00;;;;;;5117285;28;20546;-74
2022/07/12 04:37:34;;;;;;;1.10;0.60;;;18.00;1.00;;;;;;5117317;28;20502;-73
2022/07/12 04:40:01;;;;;;;0.90;0.60;;;17.90;1.00;;;;;;5117079;28;20459;-73
2022/07/12 04:42:28;;;;;;;1.00;0.50;;;17.80;99.90;;;;;;5116686;28;20453;-73
2022/07/12 04:44:55;;;;;;;0.97;0.50;;;17.80;99.90;;;;;;5116686;28;20452;-72
2022/07/12 04:47:22;;;;;;;0.80;0.53;;;17.90;99.90;;;;;;5117182;28;20449;-73
2022/07/12 04:49:50;;;;;;;1.20;0.70;;;18.00;10.90;;;;;;5117243;28;20492;-73
2022/07/12 04:52:17;;;;;;;0.80;0.50;;;18.10;1.00;;;;;;5117136;28;20453;-72
2022/07/12 04:54:44;;;;;;;0.90;0.60;;;18.10;1.00;;;;;;5116745;28;20908;-72
2022/07/12 04:57:11;;;;;;;0.90;0.60;;;18.10;1.00;;;;;;5117272;28;20452;-72
2022/07/12 04:59:38;;;;;;;0.80;0.50;;;18.10;1.00;;;;;;5116696;28;20495;-72
2022/07/12 05:02:05;;;;;;;0.87;0.57;;;18.20;1.00;;;;;;5116113;28;20445;-72
2022/07/12 05:04:33;;;;;;;1.53;0.70;;;18.20;99.90;;;;;;5116289;28;20452;-73
2022/07/12 05:07:01;;;;;;;0.70;0.60;;;18.20;1.00;;;;;;5116546;28;20449;-72
2022/07/12 05:09:28;;;;;;;2.00;0.67;;;18.10;1.00;;;;;;5116002;28;20888;-73
2022/07/12 05:11:55;;;;;;;1.40;0.60;;;18.00;92.90;;;;;;5116496;28;20497;-73
2022/07/12 05:14:22;;;;;;;0.90;0.60;;;17.90;99.90;;;;;;5115990;28;20484;-73
2022/07/12 05:16:50;;;;;;;0.93;0.70;;;17.80;99.90;;;;;;5114997;28;20452;-73
2022/07/12 05:19:17;;;;;;;0.80;0.60;;;17.80;99.90;;;;;;5115738;28;20456;-72
2022/07/12 05:21:44;;;;;;;1.20;0.70;;;17.80;1.00;;;;;;5116600;28;20448;-73
2022/07/12 05:24:12;;;;;;;0.80;0.60;;;17.70;1.00;;;;;;5116496;28;20440;-73
2022/07/12 05:26:40;;;;;;;2.40;0.70;;;17.60;1.00;;;;;;5116420;28;20480;-73
2022/07/12 05:29:07;;;;;;;1.00;0.70;;;17.60;1.00;;;;;;5115830;28;20448;-73
2022/07/12 05:31:34;;;;;;;1.10;0.80;;;17.60;1.00;;;;;;5114685;28;20445;-73
2022/07/12 05:34:01;;;;;;;1.00;0.80;;;17.70;1.00;;;;;;5115567;28;20524;-73
2022/07/12 05:36:28;;;;;;;1.73;0.80;;;17.70;1.00;;;;;;5115728;28;20525;-73
2022/07/12 05:38:55;;;;;;;1.97;0.80;;;17.50;1.00;;;;;;5115536;28;20440;-74
2022/07/12 05:41:23;;;;;;;1.20;0.80;;;17.50;1.00;;;;;;5113920;28;20461;-72
2022/07/12 05:43:50;;;;;;;0.83;0.60;;;17.70;1.00;;;;;;5115555;28;20963;-73
2022/07/12 05:46:17;;;;;;;1.10;0.87;;;18.30;99.90;;;;;;5113266;28;20460;-72
2022/07/12 05:48:44;;;;;;;0.90;0.70;;;18.60;99.90;;;;;;5114298;28;20440;-72
2022/07/12 05:53:56;;;;;;;0.90;0.80;;;19.00;99.90;;;;;;5113645;28;20510;-72
2022/07/12 05:56:24;;;;;;;1.10;0.80;;;18.70;1.00;;;;;;5116167;27;20502;-73
2022/07/12 05:58:51;;;;;;;1.20;0.70;;;18.50;1.00;;;;;;5132475;27;20444;-73
2022/07/12 06:01:18;;;;;;;0.77;0.60;;;18.30;99.90;;;;;;5122930;28;20460;-73
2022/07/12 06:03:49;;;;;;;1.03;0.60;;;18.10;99.90;;;;;;5118660;28;20450;-73
2022/07/12 06:06:16;;;;;;;0.73;0.50;;;18.10;99.90;;;;;;5135992;27;20546;-71
2022/07/12 06:08:43;;;;;;;0.90;0.60;;;18.50;99.90;;;;;;5129151;28;20545;-72
2022/07/12 06:11:10;;;;;;;1.13;0.70;;;18.60;99.90;;;;;;5122556;28;20976;-72
2022/07/12 06:13:38;;;;;;;1.80;0.63;;;18.70;1.00;;;;;;5131392;27;20437;-71
2022/07/12 06:16:06;;;;;;;1.63;0.67;;;18.90;1.00;;;;;;5136195;27;20508;-72
2022/07/12 06:18:35;;;;;;;0.97;0.60;;;18.90;99.90;;;;;;5136035;27;20863;-72
2022/07/12 06:21:02;;;;;;;0.60;0.50;;;19.00;1.00;;;;;;5136691;27;20448;-72
2022/07/12 06:23:29;;;;;;;0.97;0.60;;;19.20;1.00;;;;;;5135848;27;20443;-71
2022/07/12 06:25:56;;;;;;;0.73;0.50;;;19.20;1.00;;;;;;5135058;27;20458;-71
2022/07/12 06:28:23;;;;;;;1.00;0.50;;;19.30;1.00;;;;;;5133209;27;20448;-71
2022/07/12 06:30:51;;;;;;;0.90;0.60;;;19.40;99.90;;;;;;5135341;27;20575;-72
2022/07/12 06:33:18;;;;;;;0.77;0.50;;;19.50;99.90;;;;;;5136628;27;20500;-72
2022/07/12 06:35:45;;;;;;;1.53;0.50;;;19.40;99.90;;;;;;5136809;27;20488;-71
2022/07/12 06:38:12;;;;;;;0.80;0.50;;;19.40;99.90;;;;;;5136401;27;20439;-73
2022/07/12 06:40:39;;;;;;;0.70;0.50;;;19.40;99.90;;;;;;5137233;27;20794;-73
2022/07/12 06:43:10;;;;;;;1.23;0.50;;;19.50;99.90;;;;;;5138237;27;20448;-72
2022/07/12 06:45:37;;;;;;;0.90;0.60;;;19.70;99.90;;;;;;5136886;27;20440;-73
2022/07/12 06:48:06;;;;;;;1.23;0.60;;;19.90;1.00;;;;;;5138674;27;20444;-74
2022/07/12 06:50:33;;;;;;;0.80;0.50;;;20.00;1.00;;;;;;5137934;27;20452;-73
2022/07/12 06:53:00;;;;;;;0.80;0.50;;;19.90;1.00;;;;;;5138893;27;20489;-73
2022/07/12 06:55:27;;;;;;;0.73;0.40;;;19.70;1.00;;;;;;5138071;27;20835;-72
2022/07/12 06:57:54;;;;;;;0.60;0.40;;;19.70;1.00;;;;;;5138686;27;20897;-72
2022/07/12 07:00:21;;;;;;;0.70;0.40;;;19.90;1.00;;;;;;5139259;27;20463;-72
2022/07/12 07:02:48;;;;;;;0.70;0.50;;;19.90;1.00;;;;;;5137712;27;20800;-72
2022/07/12 07:05:17;;;;;;;0.70;0.47;;;20.00;1.00;;;;;;5136732;27;20604;-71
2022/07/12 07:07:44;;;;;;;1.20;0.50;;;20.10;99.90;;;;;;5137765;27;20448;-71
2022/07/12 07:10:11;;;;;;;1.17;0.47;;;20.10;99.90;;;;;;5137522;27;20554;-70
2022/07/12 07:12:38;;;;;;;0.60;0.40;;;20.20;99.90;;;;;;5136041;27;20447;-71
2022/07/12 07:15:06;;;;;;;0.77;0.40;;;20.20;99.90;;;;;;5137758;27;20526;-71
2022/07/12 07:17:34;;;;;;;0.60;0.40;;;20.20;99.90;;;;;;5137409;27;20439;-71
2022/07/12 07:20:01;;;;;;;1.00;0.40;;;20.40;99.90;;;;;;5137595;27;20451;-71
2022/07/12 07:22:29;;;;;;;0.60;0.30;;;20.30;99.90;;;;;;5137573;27;20448;-72
2022/07/12 07:24:56;;;;;;;0.77;0.30;;;20.30;99.90;;;;;;5137427;27;20875;-72
2022/07/12 07:27:23;;;;;;;0.60;0.40;;;20.40;99.90;;;;;;5137324;27;20455;-72
2022/07/12 07:32:34;;;;;;;0.40;0.30;;;20.40;99.90;;;;;;5137640;27;20791;-73
2022/07/12 07:35:01;;;;;;;0.50;0.40;;;20.50;25.70;;;;;;5138705;27;20765;-73
2022/07/12 07:37:30;;;;;;;0.40;0.30;;;20.60;1.00;;;;;;5138459;27;20910;-74
2022/07/12 07:39:57;;;;;;;0.40;0.20;;;20.70;1.00;;;;;;5138286;27;20550;-74
2022/07/12 07:42:24;;;;;;;0.40;0.20;;;20.90;1.00;;;;;;5136968;27;20456;-74
2022/07/12 07:44:51;;;;;;;0.57;0.20;;;21.10;1.00;;;;;;5137394;27;20502;-74
2022/07/12 07:47:19;;;;;;;0.50;0.20;;;21.30;1.00;;;;;;5137543;27;20497;-75
2022/07/12 07:49:46;;;;;;;0.40;0.20;;;21.50;1.00;;;;;;5135993;27;20751;-74
2022/07/12 07:52:12;;;;;;;0.60;0.30;;;21.40;1.00;;;;;;5134447;27;20425;-73
2022/07/12 07:54:41;;;;;;;0.40;0.30;;;21.40;1.00;;;;;;5134927;27;20233;-72
2022/07/12 07:57:09;;;;;;;0.40;0.20;;;21.60;1.00;;;;;;5135913;27;20923;-72
2022/07/12 07:59:37;;;;;;;0.50;0.30;;;21.80;1.00;;;;;;5137231;27;20451;-72
2022/07/12 08:02:04;;;;;;;0.40;0.20;;;21.90;1.00;;;;;;5136581;27;20444;-72
2022/07/12 08:04:31;;;;;;;0.40;0.27;;;22.00;1.00;;;;;;5137573;27;20459;-72
2022/07/12 08:06:58;;;;;;;0.40;0.20;;;22.20;1.00;;;;;;5137845;27;20508;-73
2022/07/12 08:09:25;;;;;;;0.50;0.30;;;22.10;1.00;;;;;;5137239;27;20794;-73
2022/07/12 08:11:54;;;;;;;0.30;0.20;;;22.20;1.00;;;;;;5137527;27;20774;-73
2022/07/12 08:14:21;;;;;;;0.30;0.20;;;22.00;1.00;;;;;;5135717;27;20861;-73
2022/07/12 08:16:48;;;;;;;0.37;0.20;;;21.90;1.00;;;;;;5135839;27;20903;-73
2022/07/12 08:19:15;;;;;;;0.30;0.20;;;22.00;1.00;;;;;;5136189;27;20950;-73
2022/07/12 08:21:42;;;;;;;0.40;0.10;;;22.10;1.00;;;;;;5136294;27;20886;-73
2022/07/12 08:24:09;;;;;;;0.30;0.10;;;22.00;1.00;;;;;;5136848;27;20447;-73
2022/07/12 08:26:36;;;;;;;0.30;0.10;;;22.20;1.00;;;;;;5137448;27;20440;-73
2022/07/12 08:29:04;;;;;;;0.30;0.20;;;22.50;1.00;;;;;;5136859;27;20451;-73
2022/07/12 08:31:31;;;;;;;0.40;0.23;;;22.40;1.00;;;;;;5137247;27;20787;-72
2022/07/12 08:33:59;;;;;;;0.50;0.20;;;22.40;1.00;;;;;;5136454;27;20451;-71
2022/07/12 08:36:26;;;;;;;0.90;0.20;;;22.20;1.00;;;;;;5136153;27;20507;-73
2022/07/12 08:38:53;;;;;;;0.40;0.20;;;22.20;1.00;;;;;;5134836;27;20516;-74
2022/07/12 08:41:20;;;;;;;0.90;0.20;;;22.20;1.00;;;;;;5135168;27;20818;-74
2022/07/12 08:43:47;;;;;;;0.30;0.10;;;22.30;1.00;;;;;;5135241;27;20480;-73
2022/07/12 08:46:16;;;;;;;0.40;0.20;;;22.30;1.00;;;;;;5135462;27;20524;-73
2022/07/12 08:48:44;;;;;;;0.50;0.30;;;22.40;1.00;;;;;;5135074;27;20451;-73
2022/07/12 08:51:13;;;;;;;0.60;0.30;;;22.60;1.00;;;;;;5131666;27;20544;-72
2022/07/12 08:53:42;;;;;;;0.50;0.23;;;22.70;1.00;;;;;;5126292;27;20511;-74
2022/07/12 08:56:33;;;;;;;0.30;0.20;;;22.60;1.00;;;;;;5132230;27;20497;-74
2022/07/12 08:59:17;;;;;;;0.30;0.20;;;22.70;1.00;;;;;;5135213;27;20193;-73
2022/07/12 09:01:49;;;;;;;0.40;0.27;;;22.80;1.00;;;;;;5135476;27;20745;-72
2022/07/12 09:04:19;;;;;;;0.50;0.20;;;23.00;1.00;;;;;;5115226;28;20451;-72
2022/07/12 09:06:46;;;;;;;0.60;0.20;;;23.10;1.00;;;;;;5116006;28;20455;-73
2022/07/12 09:09:27;;;;;;;0.40;0.20;;;23.10;1.00;;;;;;5121307;27;20541;-74
2022/07/12 09:11:54;;;;;;;0.40;0.20;;;23.30;1.00;;;;;;5118504;27;21035;-73
2022/07/12 09:14:21;;;;;;;0.40;0.20;;;23.50;1.00;;;;;;5135328;27;20448;-73
2022/07/12 09:17:02;;;;;;;1.13;0.20;;;23.70;1.00;;;;;;5134429;27;20439;-74
2022/07/12 09:19:31;;;;;;;0.40;0.30;;;23.90;1.00;;;;;;5114625;28;20499;-74
2022/07/12 09:21:59;;;;;;;0.30;0.20;;;24.00;1.00;;;;;;5118310;27;20814;-75
2022/07/12 09:24:27;;;;;;;0.40;0.20;;;24.20;1.00;;;;;;5135368;28;20766;-75
2022/07/12 09:26:58;;;;;;;1.37;0.20;;;24.40;1.00;;;;;;5136757;28;20883;-75
2022/07/12 09:29:25;;;;;;;3.40;1.50;;;24.20;1.00;;;;;;5134890;28;20448;-73
2022/07/12 09:37:26;;;;;;;0.40;0.20;;;24.60;1.00;;;;;;5136063;27;20427;-73
2022/07/12 09:39:54;;;;;;;1.10;0.23;;;24.80;1.00;;;;;;5135915;27;20463;-73
2022/07/12 09:42:21;;;;;;;0.40;0.20;;;24.50;1.00;;;;;;5136495;28;20475;-72
2022/07/12 09:44:50;;;;;;;0.43;0.20;;;24.60;1.00;;;;;;5136235;28;20459;-72
2022/07/12 09:47:17;;;;;;;0.30;0.20;;;24.50;1.00;;;;;;5130211;28;20448;-72
2022/07/12 09:49:46;;;;;;;0.40;0.20;;;24.60;1.00;;;;;;5128048;27;20456;-71
2022/07/12 09:52:20;;;;;;;0.50;0.30;;;24.50;1.00;;;;;;5135455;28;20509;-73
2022/07/12 09:54:47;;;;;;;0.60;0.27;;;24.60;1.00;;;;;;5118485;28;20941;-72
2022/07/12 09:57:21;;;;;;;0.50;0.23;;;24.80;1.00;;;;;;5124711;27;20452;-72
2022/07/12 09:59:50;;;;;;;0.30;0.20;;;25.00;1.00;;;;;;5130701;27;20456;-72
2022/07/12 10:02:18;;;;;;;0.50;0.20;;;25.00;1.00;;;;;;5125009;28;20509;-72
2022/07/12 10:04:47;;;;;;;1.43;0.20;;;25.20;1.00;;;;;;5127714;27;20448;-72
2022/07/12 10:07:15;;;;;;;0.60;0.20;;;25.20;1.00;;;;;;5117780;27;21194;-71
2022/07/12 10:09:45;;;;;;;0.40;0.20;;;25.30;1.00;;;;;;5117881;28;20517;-72
2022/07/12 10:12:13;;;;;;;0.40;0.20;;;25.30;1.00;;;;;;5134277;27;20497;-71
2022/07/12 10:14:42;;;;;;;0.30;0.20;;;25.20;1.00;;;;;;5152362;27;20442;-72
2022/07/12 10:17:10;;;;;;;0.83;0.40;;;25.30;1.00;;;;;;5126132;27;20520;-72
2022/07/12 10:19:38;;;;;;;0.50;0.30;;;25.50;1.00;;;;;;5138059;27;20467;-71
2022/07/12 10:22:20;;;;;;;0.40;0.30;;;25.80;1.00;;;;;;5138071;27;20443;-71
2022/07/12 10:24:55;;;;;;;0.30;0.20;;;26.20;1.00;;;;;;5135750;27;20555;-71
2022/07/12 10:27:34;;;;;;;0.30;0.20;;;26.30;1.00;;;;;;5135072;27;20492;-72
2022/07/12 10:30:24;;;;;;;0.30;0.20;;;26.70;1.00;;;;;;5136573;27;20462;-71
2022/07/12 10:32:53;;;;;;;0.50;0.20;;;27.00;1.00;;;;;;5111640;28;20763;-71
2022/07/12 10:35:22;;;;;;;0.30;0.20;;;27.10;1.00;;;;;;5116804;27;20579;-72
2022/07/12 10:38:16;;;;;;;0.80;0.30;;;27.10;1.00;;;;;;5138381;27;20811;-72
2022/07/12 10:40:44;;;;;;;0.40;0.20;;;27.50;1.00;;;;;;5132631;27;20899;-72
2022/07/12 10:46:24;;;;;;;0.40;0.20;;;27.90;1.00;;;;;;5136650;27;20511;-72
2022/07/12 10:48:51;;;;;;;0.30;0.20;;;28.20;1.00;;;;;;5138587;27;20447;-72
2022/07/12 10:51:20;;;;;;;0.40;0.10;;;28.30;1.00;;;;;;5137688;27;20552;-72
2022/07/12 10:53:50;;;;;;;0.50;0.33;;;27.30;1.00;;;;;;5138252;27;20468;-72
2022/07/12 10:56:20;;;;;;;0.40;0.20;;;27.30;1.00;;;;;;5138174;27;20582;-71
2022/07/12 10:58:49;;;;;;;0.50;0.20;;;27.60;1.00;;;;;;5138961;27;20538;-71
2022/07/12 11:01:18;;;;;;;0.30;0.10;;;27.70;1.00;;;;;;5138766;27;20462;-73
2022/07/12 11:03:47;;;;;;;0.30;0.20;;;28.20;1.00;;;;;;5138350;27;20500;-72
2022/07/12 11:06:15;;;;;;;0.40;0.20;;;28.10;1.00;;;;;;5135835;27;21030;-72
2022/07/12 11:08:55;;;;;;;0.30;0.20;;;28.20;1.00;;;;;;5126161;27;20443;-71
2022/07/12 11:11:23;;;;;;;0.30;0.20;;;27.70;1.00;;;;;;5137099;27;21023;-72
2022/07/12 11:13:51;;;;;;;0.30;0.20;;;27.70;1.00;;;;;;5138330;27;20440;-71
2022/07/12 11:16:18;;;;;;;0.40;0.20;;;27.50;1.00;;;;;;5117387;27;20488;-72
2022/07/12 11:18:46;;;;;;;0.33;0.20;;;27.80;1.00;;;;;;5119789;27;20514;-71
2022/07/12 11:21:13;;;;;;;0.30;0.10;;;28.10;1.00;;;;;;5124577;27;20452;-71
2022/07/12 11:23:42;;;;;;;0.30;0.10;;;28.10;1.00;;;;;;5133800;27;20512;-71
2022/07/12 11:26:11;;;;;;;0.40;0.20;;;28.50;1.00;;;;;;5135535;27;20452;-73
2022/07/12 11:28:40;;;;;;;0.30;0.20;;;28.70;1.00;;;;;;5114078;27;20851;-73
2022/07/12 11:31:08;;;;;;;0.30;0.10;;;28.80;1.00;;;;;;5125038;27;20545;-73
2022/07/12 11:33:37;;;;;;;0.30;0.10;;;28.90;1.00;;;;;;5125802;27;20573;-74
2022/07/12 11:36:06;;;;;;;0.40;0.20;;;28.70;1.00;;;;;;5127778;27;20483;-75
2022/07/12 11:38:34;;;;;;;0.40;0.20;;;28.40;1.00;;;;;;5137166;27;20779;-74
2022/07/12 11:41:03;;;;;;;0.40;0.20;;;28.50;1.00;;;;;;5137196;27;20990;-74
2022/07/12 11:43:32;;;;;;;1.37;0.10;;;28.70;1.00;;;;;;5137431;27;20944;-74
2022/07/12 11:45:59;;;;;;;0.30;0.10;;;29.00;1.00;;;;;;5137793;27;20456;-74
2022/07/12 11:48:26;;;;;;;0.30;0.20;;;29.20;1.00;;;;;;5137377;27;20557;-74
2022/07/12 11:50:54;;;;;;;0.37;0.10;;;29.30;1.00;;;;;;5137129;27;20802;-75
2022/07/12 11:53:23;;;;;;;0.30;0.10;;;29.40;1.00;;;;;;5137284;27;20942;-72
2022/07/12 11:55:51;;;;;;;0.70;0.13;;;29.80;1.00;;;;;;5134145;27;20832;-72
2022/07/12 11:58:19;;;;;;;0.30;0.20;;;29.80;1.00;;;;;;5135440;27;20917;-73
2022/07/12 12:00:49;;;;;;;0.40;0.10;;;30.00;1.00;;;;;;5134399;27;20455;-72
2022/07/12 12:03:17;;;;;;;0.53;0.20;;;30.30;1.00;;;;;;5134548;27;20479;-71
2022/07/12 12:05:45;;;;;;;0.40;0.30;;;30.20;1.00;;;;;;5135887;27;20822;-71
2022/07/12 12:08:14;;;;;;;0.40;0.20;;;30.50;1.00;;;;;;5136537;27;20492;-71
2022/07/12 12:10:42;;;;;;;0.73;0.20;;;30.40;1.00;;;;;;5136095;27;20456;-73
2022/07/12 12:13:15;;;;;;;0.50;0.30;;;30.30;1.00;;;;;;5135399;27;20726;-71
2022/07/12 12:15:52;;;;;;;0.30;0.10;;;29.90;1.00;;;;;;5135560;27;20479;-71
2022/07/12 12:18:29;;;;;;;0.50;0.20;;;30.00;1.00;;;;;;5136136;27;20443;-72
2022/07/12 12:20:59;;;;;;;0.40;0.20;;;29.70;1.00;;;;;;5135755;27;20471;-70
2022/07/12 12:23:27;;;;;;;0.33;0.20;;;29.70;1.00;;;;;;5136222;27;20476;-70
2022/07/12 12:26:08;;;;;;;0.30;0.17;;;29.90;1.00;;;;;;5134995;27;20447;-71
2022/07/12 12:28:42;;;;;;;0.30;0.10;;;29.60;1.00;;;;;;5133556;27;20927;-73
2022/07/12 12:31:13;;;;;;;0.37;0.20;;;29.90;1.00;;;;;;5133571;27;20452;-72
2022/07/12 12:33:40;;;;;;;1.17;0.20;;;30.10;1.00;;;;;;5135228;27;20496;-72
2022/07/12 12:36:16;;;;;;;0.40;0.20;;;29.90;1.00;;;;;;5136025;27;20946;-73
2022/07/12 12:38:43;;;;;;;0.50;0.20;;;30.00;1.00;;;;;;5135518;27;20814;-72
2022/07/12 12:41:11;;;;;;;0.50;0.20;;;30.20;1.00;;;;;;5135519;27;20459;-72
2022/07/12 12:43:38;;;;;;;0.50;0.27;;;30.20;1.00;;;;;;5126469;27;20527;-72
2022/07/12 12:46:05;;;;;;;0.30;0.20;;;30.20;1.00;;;;;;5137089;27;21061;-72
2022/07/12 12:48:35;;;;;;;0.40;0.20;;;30.20;1.00;;;;;;5133543;27;20440;-73
2022/07/12 12:51:08;;;;;;;0.53;0.10;;;30.20;1.00;;;;;;5135946;27;20542;-73
2022/07/12 12:53:36;;;;;;;0.50;0.20;;;30.10;1.00;;;;;;5135257;27;20479;-73
2022/07/12 12:56:07;;;;;;;0.40;0.20;;;30.30;1.00;;;;;;5134140;27;20782;-73
2022/07/12 12:58:34;;;;;;;0.30;0.17;;;30.00;1.00;;;;;;5134978;27;20882;-72
2022/07/12 13:01:02;;;;;;;0.30;0.20;;;29.80;1.00;;;;;;5134091;27;20451;-71
2022/07/12 13:03:29;;;;;;;0.60;0.13;;;29.80;1.00;;;;;;5134578;27;20951;-72
2022/07/12 13:05:58;;;;;;;0.37;0.10;;;29.80;1.00;;;;;;5133639;27;20501;-72
2022/07/12 13:08:27;;;;;;;0.40;0.20;;;29.80;1.00;;;;;;5133318;27;20756;-71
2022/07/12 13:13:37;;;;;;;0.30;0.20;;;30.20;1.00;;;;;;5133794;27;20477;-72
2022/07/12 13:16:05;;;;;;;0.97;0.10;;;30.50;1.00;;;;;;5133112;27;20538;-71
2022/07/12 13:18:33;;;;;;;0.40;0.20;;;30.80;1.00;;;;;;5131943;27;20949;-72